METAR Data
IDs: Format: Raw Decoded Include TAF

Data at: 2109 UTC 06 Dec 2019

KLKR 062055Z AUTO 00000KT 10SM BKN080 OVC110 11/05 A3016 RMK AO2
KLKR 062035Z AUTO 00000KT 10SM OVC090 12/06 A3016 RMK AO2
KLKR 062015Z AUTO 00000KT 10SM BKN095 12/06 A3016 RMK AO2
KLKR 061955Z AUTO 00000KT 10SM SCT095 12/05 A3015 RMK AO2
KLKR 061935Z AUTO 00000KT 10SM FEW075 12/05 A3016 RMK AO2
KLKR 061915Z AUTO 17004KT 10SM FEW070 12/05 A3019 RMK AO2
KLKR 061855Z AUTO 00000KT 10SM FEW065 11/05 A3020 RMK AO2
KLKR 061835Z AUTO 00000KT 10SM FEW046 BKN065 BKN075 11/05 A3020 RMK AO2
KLKR 061815Z AUTO 00000KT 10SM SCT060 BKN075 BKN090 11/04 A3021 RMK AO2
KLKR 061755Z AUTO 21003KT 10SM FEW070 FEW080 SCT095 12/03 A3020 RMK AO2
KLKR 061735Z AUTO 00000KT 10SM CLR 12/04 A3022 RMK AO2
KLKR 061715Z AUTO 25003KT 10SM CLR 12/03 A3022 RMK AO2
KLKR 061655Z AUTO 26004KT 10SM CLR 13/03 A3022 RMK AO2
KLKR 061635Z AUTO 22006KT 10SM CLR 12/03 A3023 RMK AO2
KLKR 061615Z AUTO 21004KT 10SM FEW110 12/03 A3024 RMK AO2
KLKR 061555Z AUTO 21005KT 10SM SCT110 11/03 A3023 RMK AO2
KLKR 061535Z AUTO 20005KT 10SM SCT120 11/03 A3024 RMK AO2
KLKR 061515Z AUTO 19005KT 10SM FEW110 11/02 A3024 RMK AO2
KLKR 061455Z AUTO 24005KT 10SM BKN110 11/03 A3024 RMK AO2
KLKR 061435Z AUTO 00000KT 10SM SCT120 11/03 A3023 RMK AO2
KLKR 061415Z AUTO 00000KT 10SM FEW120 09/03 A3022 RMK AO2
KLKR 061355Z AUTO 00000KT 10SM FEW120 09/02 A3023 RMK AO2
KLKR 061335Z AUTO 00000KT 10SM BKN120 08/01 A3022 RMK AO2
KLKR 061315Z AUTO 00000KT 10SM BKN120 07/00 A3022 RMK AO2
KLKR 061255Z AUTO 00000KT 10SM SCT110 07/00 A3022 RMK AO2
KLKR 061235Z AUTO 00000KT 10SM SCT120 05/01 A3023 RMK AO2
KLKR 061215Z AUTO 00000KT 10SM BKN120 07/M01 A3022 RMK AO2
KLKR 061155Z AUTO 00000KT 10SM BKN120 06/M01 A3022 RMK AO2
KLKR 061135Z AUTO 00000KT 10SM SCT100 BKN120 03/01 A3022 RMK AO2
KLKR 061115Z AUTO 00000KT 10SM BKN095 OVC120 05/M01 A3022 RMK AO2
KLKR 061055Z AUTO 00000KT 10SM FEW070 FEW080 OVC110 03/01 A3022 RMK AO2
KLKR 061035Z AUTO 00000KT 10SM BKN110 03/M00 A3021 RMK AO2
KLKR 061015Z AUTO 00000KT 10SM SCT120 03/00 A3021 RMK AO2
KLKR 060955Z AUTO 00000KT 10SM FEW120 02/00 A3021 RMK AO2
KLKR 060935Z AUTO 00000KT 10SM CLR 01/M00 A3021 RMK AO2
KLKR 060915Z AUTO 00000KT 10SM CLR 01/M01 A3021 RMK AO2
KLKR 060855Z AUTO 00000KT 10SM CLR 01/M01 A3020 RMK AO2
KLKR 060835Z AUTO 06004KT 10SM CLR 01/M01 A3020 RMK AO2
KLKR 060815Z AUTO 06003KT 10SM CLR M00/M01 A3021 RMK AO2
KLKR 060755Z AUTO 00000KT 10SM CLR M00/M01 A3021 RMK AO2
KLKR 060735Z AUTO 00000KT 10SM CLR M01/M01 A3021 RMK AO2
KLKR 060715Z AUTO 00000KT 10SM CLR 00/M01 A3022 RMK AO2
KLKR 060655Z AUTO 00000KT 10SM CLR 00/M01 A3021 RMK AO2
KLKR 060635Z AUTO 00000KT 10SM CLR M00/M01 A3020 RMK AO2
KLKR 060615Z AUTO 00000KT 10SM CLR M00/M01 A3019 RMK AO2
KLKR 060555Z AUTO 00000KT 10SM CLR 00/M01 A3019 RMK AO2
KLKR 060535Z AUTO 00000KT 10SM CLR 01/M01 A3020 RMK AO2
KLKR 060515Z AUTO 00000KT 10SM CLR 01/M01 A3021 RMK AO2
KLKR 060455Z AUTO 00000KT 10SM CLR 01/M01 A3021 RMK AO2
KLKR 060435Z AUTO 00000KT 10SM CLR 01/M01 A3020 RMK AO2
KLKR 060415Z AUTO 00000KT 10SM CLR 02/M00 A3021 RMK AO2
KLKR 060355Z AUTO 00000KT 10SM CLR 02/M01 A3021 RMK AO2
KLKR 060335Z AUTO 00000KT 10SM CLR 02/M00 A3020 RMK AO2
KLKR 060315Z AUTO 00000KT 10SM CLR 03/M01 A3019 RMK AO2
KLKR 060255Z AUTO 00000KT 10SM CLR 02/M01 A3019 RMK AO2
KLKR 060235Z AUTO 00000KT 10SM CLR 03/M00 A3018 RMK AO2
KLKR 060215Z AUTO 00000KT 10SM CLR 04/M01 A3018 RMK AO2
KLKR 060155Z AUTO 00000KT 10SM CLR 04/M01 A3018 RMK AO2
KLKR 060135Z AUTO 00000KT 10SM CLR 06/M02 A3018 RMK AO2
KLKR 060115Z AUTO 00000KT 9SM CLR 05/M01 A3017 RMK AO2
KLKR 060055Z AUTO 00000KT 10SM CLR 05/M01 A3017 RMK AO2
KLKR 060035Z AUTO 00000KT 10SM CLR 06/M00 A3017 RMK AO2
KLKR 060015Z AUTO 00000KT 10SM CLR 07/M00 A3016 RMK AO2
KLKR 052355Z AUTO 00000KT 10SM CLR 08/M02 A3015 RMK AO2
KLKR 052335Z AUTO 00000KT 10SM CLR 10/M02 A3015 RMK AO2
KLKR 052315Z AUTO 00000KT 10SM CLR 10/M01 A3014 RMK AO2
KLKR 052255Z AUTO 00000KT 10SM CLR 09/M00 A3014 RMK AO2
KLKR 052235Z AUTO 00000KT 10SM CLR 13/M05 A3013 RMK AO2
KLKR 052215Z AUTO 00000KT 10SM CLR 13/M03 A3012 RMK AO2
KLKR 052155Z AUTO 00000KT 10SM CLR 15/M05 A3011 RMK AO2
KLKR 052135Z AUTO 27003KT 10SM CLR 15/M02 A3010 RMK AO2
KLKR 052115Z AUTO 00000KT 10SM CLR 16/M05 A3010 RMK AO2
KLKR 052055Z AUTO 31004KT 10SM CLR 17/M06 A3010 RMK AO2
KLKR 052035Z AUTO 28004KT 10SM CLR 17/M05 A3009 RMK AO2
KLKR 052015Z AUTO 26005KT 10SM CLR 17/M07 A3008 RMK AO2
KLKR 051955Z AUTO 23006KT 10SM CLR 17/M05 A3008 RMK AO2
KLKR 051935Z AUTO 25007KT 10SM CLR 17/M05 A3008 RMK AO2
KLKR 051915Z AUTO 24005KT 10SM CLR 17/M06 A3008 RMK AO2
KLKR 051855Z AUTO 33005KT 10SM CLR 17/M06 A3008 RMK AO2
KLKR 051835Z AUTO 00000KT 10SM CLR 16/M06 A3008 RMK AO2
KLKR 051815Z AUTO 00000KT 10SM CLR 16/M05 A3009 RMK AO2
KLKR 051755Z AUTO VRB04KT 10SM CLR 16/M05 A3009 RMK AO2
KLKR 051735Z AUTO VRB04KT 10SM CLR 16/M05 A3009 RMK AO2
KLKR 051715Z AUTO VRB04KT 10SM CLR 15/M04 A3009 RMK AO2
KLKR 051655Z AUTO 00000KT 10SM CLR 15/M04 A3010 RMK AO2
KLKR 051635Z AUTO 00000KT 10SM CLR 14/M04 A3011 RMK AO2
KLKR 051615Z AUTO VRB03KT 10SM CLR 14/M03 A3012 RMK AO2
KLKR 051555Z AUTO 32005KT 10SM CLR 13/M03 A3011 RMK AO2
KLKR 051535Z AUTO VRB05KT 10SM CLR 13/M03 A3010 RMK AO2
KLKR 051515Z AUTO VRB04KT 10SM CLR 12/M03 A3009 RMK AO2
KLKR 051455Z AUTO VRB04KT 10SM CLR 12/M02 A3009 RMK AO2
KLKR 051435Z AUTO VRB03KT 10SM CLR 11/M01 A3008 RMK AO2
KLKR 051415Z AUTO VRB04KT 10SM CLR 10/M01 A3006 RMK AO2
KLKR 051355Z AUTO 01004KT 10SM CLR 08/M01 A3006 RMK AO2
KLKR 051335Z AUTO 35003KT 10SM CLR 06/M01 A3006 RMK AO2
KLKR 051315Z AUTO 32004KT 10SM CLR 07/M02 A3005 RMK AO2
KLKR 051255Z AUTO 00000KT 10SM CLR 04/M00 A3004 RMK AO2
KLKR 051235Z AUTO 00000KT 10SM CLR 05/M01 A3003 RMK AO2
KLKR 051215Z AUTO 25003KT 10SM CLR 05/M02 A3002 RMK AO2
KLKR 051155Z AUTO 00000KT 10SM CLR 02/M00 A3001 RMK AO2
KLKR 051135Z AUTO 00000KT 10SM CLR 05/M02 A2999 RMK AO2 LTG DSNT E
KLKR 051115Z AUTO 00000KT 10SM CLR 03/M01 A2998 RMK AO2
KLKR 051055Z AUTO 00000KT 10SM CLR 05/M02 A2997 RMK AO2
KLKR 051035Z AUTO 00000KT 10SM CLR 05/M01 A2996 RMK AO2
KLKR 051015Z AUTO 00000KT 10SM CLR 04/M01 A2995 RMK AO2
KLKR 050955Z AUTO 00000KT 10SM CLR 04/M01 A2993 RMK AO2
KLKR 050935Z AUTO 26006KT 10SM CLR 04/M01 A2992 RMK AO2
KLKR 050915Z AUTO 00000KT 10SM CLR 04/M01 A2992 RMK AO2